KCWA/CWA METAR and TAF weather

Enter ICAO airport designator
Station Type Date Time Source
KCWA METAR 2021/04/17 00:51 UTC NOAA

KCWA 170051Z 35005KT 10SM CLR 10/M06 A2997


Station Type Date Time Source
KCWA Decoded METAR 2021/04/17 00:51 UTC NOAA

Mosinee / Central Wisconsin, WI, United States (KCWA) 44-47N 089-40W
Apr 16, 2021 - 08:51 PM EDT / 2021.04.17 0051 UTC
Wind: from the N (350 degrees) at 6 MPH (5 KT):0
Visibility: 10 mile(s):0
Sky conditions: clear
Temperature: 50 F (10 C)
Dew Point: 21 F (-6 C)
Relative Humidity: 31%
Pressure (altimeter): 29.97 in. Hg (1014 hPa)
ob: KCWA 170051Z 35005KT 10SM CLR 10/M06 A2997
cycle: 1

Station Type Date Time Source
KCWA TAF 2021/04/16 18:28 UTC NOAA

TAF KCWA 161726Z 1618/1718 01006KT P6SM SKC

Example: see airport list